KAGC/AGC METAR and TAF weather

Enter ICAO airport designator
Station Type Date Time Source
KAGC METAR 2021/09/27 05:53 UTC NOAA

KAGC 270553Z AUTO 19008KT 10SM CLR 14/08 A3003 RMK AO2 SLP170 T01440078 10189 20139 53003


Station Type Date Time Source
KAGC Decoded METAR 2021/09/27 05:53 UTC NOAA

PITTSBURGH ALLEGHENY CTY., PA, United States (KAGC) 40-21N 079-55W 389M
Sep 27, 2021 - 01:53 AM EDT / 2021.09.27 0553 UTC
Wind: from the S (190 degrees) at 9 MPH (8 KT):0
Visibility: 10 mile(s):0
Sky conditions: clear
Temperature: 57.9 F (14.4 C)
Dew Point: 46.0 F (7.8 C)
Relative Humidity: 64%
Pressure (altimeter): 30.03 in. Hg (1016 hPa)
Pressure tendency: 0.01 inches (0.3 hPa) higher than three hours ago
ob: KAGC 270553Z AUTO 19008KT 10SM CLR 14/08 A3003 RMK AO2 SLP170 T01440078 10189 20139 53003
cycle: 6

Station Type Date Time Source
KAGC TAF 2021/09/27 06:42 UTC NOAA

TAF KAGC 270540Z 2706/2806 18007KT P6SM SKC
FM271400 21010G19KT P6SM SCT150
FM272300 22009KT P6SM SKC

Example: see airport list